Naomi, Kentucky
Current Conditions -  °F | °C
As of 2:35 PM on Tuesday 21 Oct 2014 (Local Time) from KSME Reporting Station
Overcast Overcast  
Wind Chill: 15°   Ceiling: 4400
Heat Index: 15°   Visibility: 10mi
Dew Point:   Wind: 7mph
Humidity: 51%   Direction: 330°NNW
Pressure: 30.05"   Gusts: NA
Location:  37.0701°N, 84.793°W
Report Text: KSME 211835Z AUTO 33006KT 10SM BKN044 OVC050 15/05 A3005 RMK AO2
Loading
Personal Weather Stations






























Interactive Weather Map
Tropical Storm Tracking
New forecast layout! Learn more

10-Day Weather Forecast

Advertisements
Track Severe Weather on mobile